CYKL

Schefferville Airport

Schefferville, Quebec, Canada
METAR CYKL 222100Z AUTO 32012G18KT 9SM CLR 04/M15 A3003 RMK SLP208
Observed Flight Rules
Apr-22 @ 21:00 UTC (an hour ago) Visual Flight Rules
Wind Visibility Clouds
320° at 12 knots
 Gusting to 18 knots
9 miles
  • Clear skies
Temperatures Readings
Current 4°C / 39°F
Dewpoint -15°C / 5°F
Humidity 24%
Altimeter 30.03" Hg
Pressure 1020.8 hPa
Elevation 521
METAR CYKL 222100Z AUTO 32012G18KT 9SM CLR 04/M15 A3003 RMK SLP208
Observed Flight Rules
Apr-22 @ 21:00 UTC
(an hour ago)
VFR
Wind Visibility
320° at 12 knots
 Gusting to 18 knots
9 miles
Clouds
  • Clear skies
Temperature Dewpoint
4°C / 39°F -15°C / 5°F
Humidity Altimeter Pressure
24% 30.03" Hg 1020.8 hPa